createdAt,value
2018-05-29T00:00:14.560Z,25.13
2018-05-29T00:02:42.070Z,24.60
2018-05-29T00:05:09.572Z,24.08
2018-05-29T00:07:37.085Z,24.77
2018-05-29T00:10:04.619Z,24.60
2018-05-29T00:12:32.878Z,24.83
2018-05-29T00:15:00.471Z,24.92
2018-05-29T00:17:28.016Z,24.40
2018-05-29T00:19:56.295Z,25.23
2018-05-29T00:22:23.802Z,24.77
2018-05-29T00:24:51.294Z,24.75
2018-05-29T00:27:19.580Z,25.40
2018-05-29T00:29:47.855Z,24.83
2018-05-29T00:32:16.138Z,25.15
2018-05-29T00:34:43.664Z,24.50
2018-05-29T00:37:11.182Z,25.30
2018-05-29T00:39:38.686Z,25.35
2018-05-29T00:42:06.191Z,25.12
2018-05-29T00:44:33.739Z,25.48
2018-05-29T00:47:01.239Z,25.87
2018-05-29T00:49:28.743Z,25.53
2018-05-29T00:51:57.020Z,25.75
2018-05-29T00:54:25.291Z,25.30
2018-05-29T00:56:53.559Z,25.52
2018-05-29T00:59:21.962Z,26.17
2018-05-29T01:01:49.482Z,26.80
2018-05-29T01:04:16.994Z,26.43
2018-05-29T01:06:44.498Z,26.10
2018-05-29T01:09:12.016Z,26.12
2018-05-29T01:11:39.524Z,25.55
2018-05-29T01:14:07.790Z,25.98
2018-05-29T01:16:35.309Z,25.90
2018-05-29T01:19:02.817Z,26.25
2018-05-29T01:21:31.112Z,27.13
2018-05-29T01:23:58.614Z,28.10
2018-05-29T01:26:26.116Z,27.40
2018-05-29T01:28:54.389Z,27.45
2018-05-29T01:31:22.666Z,26.98
2018-05-29T01:33:50.943Z,27.20
2018-05-29T01:36:19.222Z,26.65
2018-05-29T01:38:47.489Z,26.50
2018-05-29T01:41:15.759Z,28.00
2018-05-29T01:43:43.275Z,28.47
2018-05-29T01:46:10.775Z,29.35
2018-05-29T01:48:39.081Z,29.58
2018-05-29T01:51:06.591Z,29.42
2018-05-29T01:53:34.198Z,28.65
2018-05-29T01:56:01.704Z,29.60
2018-05-29T01:58:29.217Z,29.27
2018-05-29T02:00:56.715Z,29.67
2018-05-29T02:03:24.221Z,29.00
2018-05-29T02:05:52.486Z,29.53
2018-05-29T02:08:20.752Z,29.27
2018-05-29T02:10:48.338Z,31.02
2018-05-29T02:13:15.914Z,30.57
2018-05-29T02:15:43.424Z,31.37
2018-05-29T02:19:58.003Z,32.08
2018-05-29T02:22:26.284Z,31.90
2018-05-29T02:24:54.563Z,31.37
2018-05-29T02:27:22.833Z,31.50
2018-05-29T02:29:51.100Z,31.98
2018-05-29T02:32:19.415Z,30.50
2018-05-29T02:34:46.919Z,31.30
2018-05-29T02:37:14.527Z,29.85
2018-05-29T02:39:42.025Z,30.87
2018-05-29T02:42:09.542Z,31.20
2018-05-29T02:44:37.062Z,31.58
2018-05-29T02:47:04.569Z,31.60
2018-05-29T02:49:32.083Z,30.92
2018-05-29T02:51:59.588Z,32.50
2018-05-29T02:54:27.091Z,33.22
2018-05-29T02:56:54.600Z,32.80
2018-05-29T02:59:22.121Z,33.50
2018-05-29T03:01:49.639Z,32.58
2018-05-29T03:04:17.149Z,33.03
2018-05-29T03:06:45.450Z,31.98
2018-05-29T03:09:12.955Z,32.67
2018-05-29T03:11:40.563Z,31.62
2018-05-29T03:14:08.073Z,32.15
2018-05-29T03:16:35.596Z,32.17
2018-05-29T03:19:03.086Z,31.58
2018-05-29T03:21:30.698Z,31.35
2018-05-29T03:23:58.211Z,32.33
2018-05-29T03:26:25.751Z,31.45
2018-05-29T03:28:53.278Z,33.17
2018-05-29T03:31:20.784Z,33.13
2018-05-29T03:33:48.303Z,33.60
2018-05-29T03:36:15.832Z,31.90
2018-05-29T03:38:44.341Z,31.73
2018-05-29T03:41:11.852Z,34.17
2018-05-29T03:43:39.396Z,33.70
2018-05-29T03:46:06.903Z,34.10
2018-05-29T03:48:34.413Z,33.70
2018-05-29T03:51:02.029Z,33.97
2018-05-29T03:53:29.554Z,34.28
2018-05-29T03:55:57.837Z,34.75
2018-05-29T03:58:26.348Z,35.92
2018-05-29T04:00:53.887Z,34.10
2018-05-29T04:03:22.158Z,33.15
2018-05-29T04:05:50.447Z,32.60
2018-05-29T04:08:18.723Z,30.85
2018-05-29T04:10:47.012Z,31.65
2018-05-29T04:13:14.507Z,31.12
2018-05-29T04:15:42.135Z,29.70
2018-05-29T04:18:09.698Z,28.50
2018-05-29T04:20:37.201Z,27.85
2018-05-29T04:23:04.701Z,28.60
2018-05-29T04:25:32.198Z,28.95
2018-05-29T04:27:59.703Z,27.55
2018-05-29T04:30:27.984Z,28.27
2018-05-29T04:32:55.506Z,27.45
2018-05-29T04:35:23.016Z,27.67
2018-05-29T04:37:50.510Z,26.52
2018-05-29T04:40:18.024Z,27.90
2018-05-29T04:42:45.538Z,26.67
2018-05-29T04:45:13.051Z,26.80
2018-05-29T04:47:40.569Z,25.98
2018-05-29T04:50:08.084Z,26.17
2018-05-29T04:52:35.604Z,26.73
2018-05-29T04:55:03.877Z,25.67
2018-05-29T04:57:32.142Z,24.10
2018-05-29T05:00:00.427Z,24.95
2018-05-29T05:02:28.725Z,24.65
2018-05-29T05:04:56.967Z,23.30
2018-05-29T05:07:24.476Z,24.10
2018-05-29T05:09:51.968Z,26.95
2018-05-29T05:12:19.480Z,23.30
2018-05-29T05:14:47.008Z,24.20
2018-05-29T05:17:15.283Z,22.98
2018-05-29T05:19:43.575Z,23.33
2018-05-29T05:22:11.134Z,22.30
2018-05-29T05:24:38.648Z,22.37
2018-05-29T05:27:06.156Z,21.50
2018-05-29T05:29:33.666Z,22.13
2018-05-29T05:32:01.192Z,21.65
2018-05-29T05:34:28.719Z,21.85
2018-05-29T05:36:57.002Z,20.17
2018-05-29T05:39:24.527Z,21.30
2018-05-29T05:41:52.028Z,22.75
2018-05-29T05:44:19.599Z,21.20
2018-05-29T05:46:47.127Z,22.23
2018-05-29T05:49:15.419Z,22.02
2018-05-29T05:51:42.946Z,21.77
2018-05-29T05:54:10.447Z,21.60
2018-05-29T05:56:37.965Z,22.15
2018-05-29T05:59:05.470Z,21.75
2018-05-29T06:01:32.992Z,21.70
2018-05-29T06:04:01.269Z,22.45
2018-05-29T06:06:29.579Z,23.33
2018-05-29T06:08:57.084Z,23.30
2018-05-29T06:11:24.589Z,22.85
2018-05-29T06:13:52.117Z,22.33
2018-05-29T06:16:20.435Z,23.75
2018-05-29T06:18:48.673Z,22.70
2018-05-29T06:21:16.946Z,22.70
2018-05-29T06:23:44.499Z,22.35
2018-05-29T06:26:12.772Z,22.48
2018-05-29T06:28:41.076Z,21.08
2018-05-29T06:31:08.584Z,22.10
2018-05-29T06:33:36.095Z,21.80
2018-05-29T06:36:03.592Z,22.07
2018-05-29T06:38:31.116Z,21.10
2018-05-29T06:40:58.614Z,21.30
2018-05-29T06:43:26.226Z,21.25
2018-05-29T06:45:54.488Z,20.90
2018-05-29T06:48:22.767Z,21.15
2018-05-29T06:50:51.040Z,20.75
2018-05-29T06:53:18.568Z,21.52
2018-05-29T06:55:46.078Z,21.45
2018-05-29T06:58:14.364Z,21.98
2018-05-29T07:00:42.625Z,21.70
2018-05-29T07:03:11.040Z,21.70
2018-05-29T07:05:38.535Z,22.10
2018-05-29T07:08:06.039Z,20.30
2018-05-29T07:10:34.318Z,21.12
2018-05-29T07:13:02.591Z,20.58
2018-05-29T07:15:30.883Z,20.08
2018-05-29T07:17:58.400Z,19.62
2018-05-29T07:20:25.927Z,19.33
2018-05-29T07:22:53.427Z,17.98
2018-05-29T07:25:20.943Z,18.05
2018-05-29T07:27:48.479Z,18.25
2018-05-29T07:30:15.991Z,18.10
2018-05-29T07:32:43.527Z,18.05
2018-05-29T07:35:11.061Z,17.67
2018-05-29T07:37:38.597Z,18.45
2018-05-29T07:40:06.878Z,17.62
2018-05-29T07:42:34.416Z,17.05
2018-05-29T07:45:02.696Z,17.20
2018-05-29T07:47:31.092Z,17.33
2018-05-29T07:49:58.608Z,17.17
2018-05-29T07:52:26.106Z,16.67
2018-05-29T07:54:54.408Z,15.98
2018-05-29T07:57:21.906Z,15.43
2018-05-29T07:59:49.406Z,16.42
2018-05-29T08:02:16.935Z,14.57
2018-05-29T08:04:45.222Z,15.35
2018-05-29T08:07:13.488Z,14.25
2018-05-29T08:09:41.782Z,14.37
2018-05-29T08:12:10.040Z,13.30
2018-05-29T08:14:38.348Z,13.45
2018-05-29T08:17:05.863Z,12.80
2018-05-29T08:19:33.395Z,12.60
2018-05-29T08:22:00.903Z,12.10
2018-05-29T08:24:29.192Z,12.43
2018-05-29T08:26:57.463Z,11.73
2018-05-29T08:29:25.759Z,12.10
2018-05-29T08:31:53.315Z,12.68
2018-05-29T08:34:20.844Z,11.50
2018-05-29T08:36:49.136Z,10.90
2018-05-29T08:39:17.461Z,11.40
2018-05-29T08:41:44.944Z,11.60
2018-05-29T08:44:12.444Z,11.87
2018-05-29T08:46:39.992Z,12.20
2018-05-29T08:49:08.280Z,12.37
2018-05-29T08:51:35.779Z,11.35
2018-05-29T08:54:03.295Z,11.75
2018-05-29T08:56:30.799Z,12.23
2018-05-29T08:58:58.323Z,11.90
2018-05-29T09:01:25.819Z,12.13
2018-05-29T09:03:53.343Z,11.40
2018-05-29T09:06:20.858Z,12.35
2018-05-29T09:08:49.175Z,12.32
2018-05-29T09:11:17.016Z,11.35
2018-05-29T09:13:45.286Z,11.43
2018-05-29T09:16:13.580Z,10.70
2018-05-29T09:18:41.076Z,11.43
2018-05-29T09:21:08.587Z,10.60
2018-05-29T09:23:36.091Z,10.10
2018-05-29T09:26:03.625Z,9.82
2018-05-29T09:28:31.156Z,11.07
2018-05-29T09:30:59.427Z,10.68
2018-05-29T09:33:27.724Z,10.20
2018-05-29T09:35:55.225Z,12.13
2018-05-29T09:38:22.744Z,12.77
2018-05-29T09:40:50.259Z,11.65
2018-05-29T09:43:18.519Z,10.97
2018-05-29T09:45:46.086Z,11.00
2018-05-29T09:48:13.564Z,10.98
2018-05-29T09:50:41.855Z,12.82
2018-05-29T09:53:09.364Z,11.55
2018-05-29T09:55:36.895Z,11.12
2018-05-29T09:58:04.447Z,11.80
2018-05-29T10:00:37.576Z,11.90
2018-05-29T10:03:05.102Z,11.60
2018-05-29T10:05:32.604Z,12.18
2018-05-29T10:08:00.108Z,12.60
2018-05-29T10:10:27.631Z,12.88
2018-05-29T10:12:55.152Z,12.37
2018-05-29T10:15:22.654Z,12.30
2018-05-29T10:17:51.067Z,11.65
2018-05-29T10:20:18.570Z,11.60
2018-05-29T10:22:46.091Z,12.30
2018-05-29T10:25:13.640Z,13.30
2018-05-29T10:27:41.174Z,12.75
2018-05-29T10:30:09.570Z,12.10
2018-05-29T10:32:37.868Z,12.40
2018-05-29T10:35:05.406Z,13.38
2018-05-29T10:37:33.676Z,12.60
2018-05-29T10:40:01.204Z,11.75
2018-05-29T10:42:29.474Z,11.40
2018-05-29T10:44:57.757Z,12.35
2018-05-29T10:47:26.044Z,12.77
2018-05-29T10:49:54.315Z,11.70
2018-05-29T10:52:22.712Z,11.75
2018-05-29T10:54:50.260Z,11.83
2018-05-29T10:57:18.662Z,12.17
2018-05-29T10:59:46.169Z,11.75
2018-05-29T11:02:13.781Z,11.35
2018-05-29T11:04:41.284Z,11.60
2018-05-29T11:07:08.797Z,11.65
2018-05-29T11:09:36.364Z,10.95
2018-05-29T11:12:03.908Z,11.00
2018-05-29T11:14:32.169Z,11.02
2018-05-29T11:16:59.767Z,10.57
2018-05-29T11:19:27.427Z,10.80
2018-05-29T11:21:54.925Z,10.57
2018-05-29T11:24:22.451Z,10.30
2018-05-29T11:26:49.983Z,10.60
2018-05-29T11:29:18.286Z,11.07
2018-05-29T11:31:45.778Z,10.47
2018-05-29T11:34:13.298Z,10.20
2018-05-29T11:36:40.808Z,10.10
2018-05-29T11:39:08.328Z,10.07
2018-05-29T11:41:35.831Z,9.50
2018-05-29T11:44:03.347Z,9.88
2018-05-29T11:46:30.843Z,9.85
2018-05-29T11:49:33.767Z,9.60
2018-05-29T11:52:02.039Z,10.05
2018-05-29T11:54:30.346Z,10.05
2018-05-29T11:56:57.876Z,9.75
2018-05-29T11:59:26.144Z,9.70
2018-05-29T12:01:54.419Z,10.30
2018-05-29T12:04:22.706Z,9.55
2018-05-29T12:06:50.978Z,9.80
2018-05-29T12:09:19.238Z,9.65
2018-05-29T12:11:46.751Z,9.43
2018-05-29T12:14:14.257Z,9.25
2018-05-29T12:16:42.551Z,9.70
2018-05-29T12:19:10.818Z,9.10
2018-05-29T12:21:39.155Z,9.70
2018-05-29T12:24:06.637Z,8.75
2018-05-29T12:26:34.164Z,8.30
2018-05-29T12:29:01.659Z,8.32
2018-05-29T12:31:29.174Z,8.73
2018-05-29T12:33:56.722Z,9.50
2018-05-29T12:36:24.258Z,9.90
2018-05-29T12:38:51.828Z,9.87
2018-05-29T12:41:20.115Z,9.65
2018-05-29T12:43:47.616Z,9.93
2018-05-29T12:46:15.189Z,10.13
2018-05-29T12:48:42.665Z,9.55
2018-05-29T12:51:10.940Z,10.25
2018-05-29T12:53:39.227Z,10.40
2018-05-29T12:56:07.491Z,9.90
2018-05-29T12:58:35.796Z,10.15
2018-05-29T13:01:03.296Z,10.30
2018-05-29T13:03:30.817Z,10.40
2018-05-29T13:05:58.320Z,10.83
2018-05-29T13:08:25.832Z,10.67
2018-05-29T13:10:53.333Z,10.90
2018-05-29T13:13:20.858Z,14.55
2018-05-29T13:15:48.360Z,16.60
2018-05-29T13:18:15.877Z,10.88
2018-05-29T13:20:43.376Z,11.65
2018-05-29T13:23:10.894Z,21.83
2018-05-29T13:25:38.403Z,11.30
2018-05-29T13:30:40.008Z,11.90
2018-05-29T13:33:07.527Z,11.60
2018-05-29T13:35:35.055Z,11.12
2018-05-29T13:38:02.563Z,11.15
2018-05-29T13:40:30.851Z,11.10
2018-05-29T13:42:59.134Z,11.45
2018-05-29T13:45:26.681Z,11.85
2018-05-29T13:47:54.219Z,11.30
2018-05-29T13:50:21.752Z,11.60
2018-05-29T13:52:49.253Z,11.68
2018-05-29T13:55:17.539Z,11.82
2018-05-29T13:57:45.040Z,11.27
2018-05-29T14:00:12.555Z,11.40
2018-05-29T14:02:40.060Z,11.35
2018-05-29T14:05:07.599Z,11.23
2018-05-29T14:07:35.110Z,11.27
2018-05-29T14:10:03.509Z,11.48
2018-05-29T14:12:31.080Z,11.32
2018-05-29T14:14:58.591Z,11.10
2018-05-29T14:17:26.107Z,13.23
2018-05-29T14:19:53.638Z,16.65
2018-05-29T14:22:21.919Z,13.68
2018-05-29T14:24:49.431Z,13.25
2018-05-29T14:27:16.976Z,14.70
2018-05-29T14:29:44.483Z,13.05
2018-05-29T14:32:12.775Z,12.80
2018-05-29T14:34:40.336Z,13.00
2018-05-29T14:37:07.996Z,13.77
2018-05-29T14:39:35.518Z,12.53
2018-05-29T14:42:03.114Z,10.80
2018-05-29T14:44:30.630Z,10.13
2018-05-29T14:46:58.131Z,9.88
2018-05-29T14:49:25.687Z,9.90
2018-05-29T14:51:53.179Z,8.75
2018-05-29T14:54:20.691Z,8.38
2018-05-29T14:56:48.964Z,13.88
2018-05-29T14:59:17.247Z,8.70
2018-05-29T15:01:45.525Z,8.18
2018-05-29T15:04:13.828Z,8.27
2018-05-29T15:06:41.336Z,9.32
2018-05-29T15:09:08.910Z,9.68
2018-05-29T15:11:36.407Z,9.85
2018-05-29T15:14:03.912Z,10.70
2018-05-29T15:16:31.434Z,10.48
2018-05-29T15:18:58.933Z,11.15
2018-05-29T15:21:26.467Z,9.52
2018-05-29T15:23:53.975Z,10.18
2018-05-29T15:26:21.499Z,11.05
2018-05-29T15:28:49.008Z,11.20
2018-05-29T15:31:16.558Z,11.50
2018-05-29T15:33:44.084Z,10.80
2018-05-29T15:36:11.622Z,10.77
2018-05-29T15:38:39.136Z,10.30
2018-05-29T15:41:06.676Z,10.23
2018-05-29T15:43:34.955Z,10.70
2018-05-29T15:46:03.219Z,9.70
2018-05-29T15:48:31.507Z,10.10
2018-05-29T15:50:59.012Z,9.75
2018-05-29T15:53:26.631Z,9.60
2018-05-29T15:55:54.062Z,9.00
2018-05-29T15:58:21.560Z,8.98
2018-05-29T16:00:49.077Z,9.40
2018-05-29T16:03:16.666Z,8.93
2018-05-29T16:05:44.168Z,8.02
2018-05-29T16:08:11.787Z,7.00
2018-05-29T16:10:39.295Z,7.30
2018-05-29T16:13:06.816Z,7.60
2018-05-29T16:15:34.321Z,6.85
2018-05-29T16:18:01.847Z,8.18
2018-05-29T16:20:29.455Z,7.30
2018-05-29T16:22:57.743Z,7.72
2018-05-29T16:25:26.026Z,7.40
2018-05-29T16:27:53.551Z,8.02
2018-05-29T16:30:21.056Z,9.10
2018-05-29T16:32:48.580Z,11.77
2018-05-29T16:35:16.083Z,10.00
2018-05-29T16:37:43.629Z,9.13
2018-05-29T16:40:11.156Z,8.80
2018-05-29T16:42:38.672Z,8.57
2018-05-29T16:45:06.216Z,12.53
2018-05-29T16:47:33.712Z,8.10
2018-05-29T16:50:01.224Z,10.02
2018-05-29T16:52:28.779Z,9.52
2018-05-29T16:54:56.293Z,9.02
2018-05-29T16:57:23.810Z,13.40
2018-05-29T16:59:51.309Z,12.60
2018-05-29T17:02:18.831Z,9.00
2018-05-29T17:04:46.330Z,9.00
2018-05-29T17:07:14.734Z,8.90
2018-05-29T17:09:42.995Z,9.80
2018-05-29T17:12:11.264Z,9.65
2018-05-29T17:14:39.554Z,9.95
2018-05-29T17:17:07.813Z,9.48
2018-05-29T17:19:35.412Z,9.85
2018-05-29T17:22:02.915Z,9.65
2018-05-29T17:24:30.438Z,10.13
2018-05-29T17:26:57.935Z,9.10
2018-05-29T17:29:25.458Z,9.48
2018-05-29T17:31:53.006Z,9.10
2018-05-29T17:34:20.499Z,8.93
2018-05-29T17:36:47.994Z,9.30
2018-05-29T17:39:16.291Z,9.50
2018-05-29T17:41:43.795Z,9.10
2018-05-29T17:44:11.301Z,9.43
2018-05-29T17:46:39.680Z,9.38
2018-05-29T17:49:07.245Z,11.98
2018-05-29T17:51:34.773Z,9.50
2018-05-29T17:54:02.312Z,8.93
2018-05-29T17:56:29.826Z,8.88
2018-05-29T17:58:57.384Z,9.93
2018-05-29T18:01:24.897Z,9.70
2018-05-29T18:03:52.413Z,25.00
2018-05-29T18:06:19.952Z,17.15
2018-05-29T18:08:47.480Z,9.77
2018-05-29T18:11:14.980Z,18.30
2018-05-29T18:13:42.522Z,20.63
2018-05-29T18:16:10.795Z,26.33
2018-05-29T18:18:39.056Z,13.33
2018-05-29T18:21:06.583Z,11.73
2018-05-29T18:23:34.077Z,9.53
2018-05-29T18:26:02.364Z,9.50
2018-05-29T18:28:29.878Z,10.50
2018-05-29T18:30:57.406Z,11.13
2018-05-29T18:33:24.945Z,10.35
2018-05-29T18:35:53.217Z,10.15
2018-05-29T18:38:21.504Z,11.23
2018-05-29T18:40:49.023Z,10.80
2018-05-29T18:43:16.547Z,9.90
2018-05-29T18:45:44.038Z,10.27
2018-05-29T18:48:11.669Z,9.30
2018-05-29T18:50:39.170Z,9.68
2018-05-29T18:53:07.451Z,10.48
2018-05-29T18:55:35.733Z,10.30
2018-05-29T18:58:04.031Z,9.32
2018-05-29T19:00:31.545Z,10.45
2018-05-29T19:02:59.156Z,9.55
2018-05-29T19:05:26.678Z,10.40
2018-05-29T19:07:54.983Z,10.00
2018-05-29T19:10:22.490Z,10.50
2018-05-29T19:12:50.046Z,10.30
2018-05-29T19:15:17.558Z,10.70
2018-05-29T19:17:45.123Z,11.00
2018-05-29T19:20:13.401Z,10.50
2018-05-29T19:22:40.926Z,11.18
2018-05-29T19:25:09.233Z,11.15
2018-05-29T19:27:36.732Z,11.10
2018-05-29T19:30:06.371Z,10.95
2018-05-29T19:32:34.634Z,11.20
2018-05-29T19:35:03.692Z,10.82
2018-05-29T19:37:31.207Z,10.75
2018-05-29T19:39:58.775Z,10.80
2018-05-29T19:42:26.279Z,11.70
2018-05-29T19:44:53.786Z,11.03
2018-05-29T19:47:21.303Z,11.77
2018-05-29T19:49:48.808Z,11.88
2018-05-29T19:52:16.374Z,11.38
2018-05-29T19:54:43.868Z,10.85
2018-05-29T19:57:11.374Z,11.85
2018-05-29T19:59:39.638Z,11.15
2018-05-29T20:02:07.923Z,11.52
2018-05-29T20:04:36.228Z,11.27
2018-05-29T20:07:03.739Z,11.90
2018-05-29T20:09:31.248Z,12.40
2018-05-29T20:11:58.751Z,12.15
2018-05-29T20:14:26.254Z,11.90
2018-05-29T20:16:53.771Z,12.30
2018-05-29T20:19:21.278Z,11.95
2018-05-29T20:21:48.925Z,13.20
2018-05-29T20:24:16.432Z,13.00
2018-05-29T20:26:43.932Z,12.75
2018-05-29T20:29:12.218Z,12.85
2018-05-29T20:31:39.710Z,13.02
2018-05-29T20:34:07.209Z,12.95
2018-05-29T20:36:35.487Z,13.13
2018-05-29T20:39:03.755Z,13.43
2018-05-29T20:41:31.267Z,13.52
2018-05-29T20:43:58.824Z,14.10
2018-05-29T20:46:27.052Z,13.60
2018-05-29T20:48:55.340Z,13.23
2018-05-29T20:51:23.626Z,14.10
2018-05-29T20:53:51.162Z,13.85
2018-05-29T20:56:19.448Z,14.98
2018-05-29T20:58:47.726Z,14.70
2018-05-29T21:01:16.015Z,14.80
2018-05-29T21:03:43.532Z,15.40
2018-05-29T21:06:11.039Z,15.30
2018-05-29T21:08:38.587Z,15.05
2018-05-29T21:11:06.859Z,15.25
2018-05-29T21:13:35.123Z,14.48
2018-05-29T21:16:03.396Z,13.75
2018-05-29T21:18:31.666Z,14.70
2018-05-29T21:21:00.116Z,14.27
2018-05-29T21:23:27.626Z,14.38
2018-05-29T21:25:55.915Z,14.00
2018-05-29T21:28:23.449Z,14.90
2018-05-29T21:30:50.933Z,14.40
2018-05-29T21:33:18.447Z,15.20
2018-05-29T21:35:45.943Z,14.73
2018-05-29T21:38:13.500Z,14.77
2018-05-29T21:40:41.007Z,15.00
2018-05-29T21:43:08.507Z,15.05
2018-05-29T21:45:36.794Z,15.18
2018-05-29T21:48:04.295Z,15.73
2018-05-29T21:50:31.793Z,15.85
2018-05-29T21:53:00.071Z,16.10
2018-05-29T21:55:28.375Z,18.33
2018-05-29T21:57:55.875Z,17.70
2018-05-29T22:00:23.392Z,17.65
2018-05-29T22:02:50.886Z,17.97
2018-05-29T22:05:18.383Z,18.97
2018-05-29T22:07:46.661Z,17.10
2018-05-29T22:10:15.108Z,17.70
2018-05-29T22:12:42.608Z,18.40
2018-05-29T22:15:10.171Z,17.30
2018-05-29T22:17:37.691Z,17.90
2018-05-29T22:20:05.285Z,18.23
2018-05-29T22:22:32.798Z,18.35
2018-05-29T22:25:00.310Z,20.10
2018-05-29T22:27:27.831Z,18.85
2018-05-29T22:29:55.342Z,18.90
2018-05-29T22:32:22.848Z,17.77
2018-05-29T22:34:50.363Z,19.23
2018-05-29T22:37:17.884Z,18.50
2018-05-29T22:39:46.170Z,18.98
2018-05-29T22:42:13.679Z,18.10
2018-05-29T22:44:41.192Z,19.62
2018-05-29T22:47:08.706Z,19.10
2018-05-29T22:49:36.227Z,19.10
2018-05-29T22:52:03.764Z,19.23
2018-05-29T22:54:31.268Z,18.47
2018-05-29T22:56:58.780Z,19.00
2018-05-29T22:59:26.299Z,18.85
2018-05-29T23:01:53.814Z,20.05
2018-05-29T23:04:21.326Z,18.50
2018-05-29T23:06:48.921Z,18.17
2018-05-29T23:09:16.428Z,18.70
2018-05-29T23:11:43.936Z,19.95
2018-05-29T23:14:11.453Z,20.47
2018-05-29T23:16:39.051Z,19.00
2018-05-29T23:19:06.567Z,18.83
2018-05-29T23:21:34.071Z,19.92
2018-05-29T23:24:01.574Z,19.75
2018-05-29T23:26:29.090Z,19.70
2018-05-29T23:28:56.590Z,20.52
2018-05-29T23:31:24.109Z,20.13
2018-05-29T23:33:51.608Z,20.33
2018-05-29T23:36:19.105Z,19.02
2018-05-29T23:38:47.364Z,20.30
2018-05-29T23:41:15.621Z,20.83
2018-05-29T23:43:43.219Z,20.13
2018-05-29T23:46:11.473Z,20.48
2018-05-29T23:48:40.471Z,20.63
2018-05-29T23:51:08.724Z,21.30
2018-05-29T23:53:36.219Z,21.23
2018-05-29T23:56:04.501Z,21.65
2018-05-29T23:58:31.980Z,21.50
